sensor_id;sensor_type;location;lat;lon;timestamp;pressure;altitude;pressure_sealevel;temperature;humidity
73886;BME280;62217;44.504;11.312;2024-03-02T10:01:55;100513.16;;;24.46;46.23
73886;BME280;62217;44.504;11.312;2024-03-02T10:04:21;100516.59;;;24.53;45.85
73886;BME280;62217;44.504;11.312;2024-03-02T10:06:47;100516.31;;;24.43;46.35
73886;BME280;62217;44.504;11.312;2024-03-02T10:09:27;100514.84;;;24.29;46.74
73886;BME280;62217;44.504;11.312;2024-03-02T10:11:53;100519.78;;;24.20;47.19
73886;BME280;62217;44.504;11.312;2024-03-02T10:14:18;100522.94;;;24.17;47.19
73886;BME280;62217;44.504;11.312;2024-03-02T10:16:44;100522.34;;;24.15;47.36
73886;BME280;62217;44.504;11.312;2024-03-02T10:19:16;100522.34;;;24.15;47.77
73886;BME280;62217;44.504;11.312;2024-03-02T10:21:43;100520.69;;;24.14;48.02
73886;BME280;62217;44.504;11.312;2024-03-02T10:24:08;100524.25;;;24.15;47.83
73886;BME280;62217;44.504;11.312;2024-03-02T10:26:34;100528.25;;;24.12;47.67
73886;BME280;62217;44.504;11.312;2024-03-02T10:28:59;100525.75;;;24.11;47.72
73886;BME280;62217;44.504;11.312;2024-03-02T10:31:25;100533.28;;;24.09;47.66
73886;BME280;62217;44.504;11.312;2024-03-02T10:33:54;100528.94;;;24.08;47.49
73886;BME280;62217;44.504;11.312;2024-03-02T10:36:20;100529.16;;;24.06;47.44
73886;BME280;62217;44.504;11.312;2024-03-02T10:38:46;100524.53;;;24.07;47.66
73886;BME280;62217;44.504;11.312;2024-03-02T10:41:20;100525.38;;;24.07;47.84
73886;BME280;62217;44.504;11.312;2024-03-02T10:43:48;100528.94;;;24.08;47.65
73886;BME280;62217;44.504;11.312;2024-03-02T10:46:15;100528.09;;;24.07;47.97
73886;BME280;62217;44.504;11.312;2024-03-02T10:48:46;100528.94;;;24.08;47.73
73886;BME280;62217;44.504;11.312;2024-03-02T10:51:11;100531.66;;;24.08;47.60
73886;BME280;62217;44.504;11.312;2024-03-02T10:53:37;100529.75;;;24.08;47.63
73886;BME280;62217;44.504;11.312;2024-03-02T10:56:04;100529.75;;;24.08;47.27
73886;BME280;62217;44.504;11.312;2024-03-02T10:58:33;100527.06;;;24.08;47.72
73886;BME280;62217;44.504;11.312;2024-03-02T11:01:03;100523.50;;;24.08;47.84
73886;BME280;62217;44.504;11.312;2024-03-02T11:03:35;100527.84;;;24.09;47.44
73886;BME280;62217;44.504;11.312;2024-03-02T11:06:03;100518.22;;;24.13;47.78
73886;BME280;62217;44.504;11.312;2024-03-02T11:08:33;100519.63;;;24.15;47.59
73886;BME280;62217;44.504;11.312;2024-03-02T11:11:06;100511.03;;;24.18;47.90
73886;BME280;62217;44.504;11.312;2024-03-02T11:13:33;100515.38;;;24.19;47.54
73886;BME280;62217;44.504;11.312;2024-03-02T11:16:05;100504.31;;;24.21;47.63
73886;BME280;62217;44.504;11.312;2024-03-02T11:18:32;100503.25;;;24.22;47.80
73886;BME280;62217;44.504;11.312;2024-03-02T11:20:58;100496.78;;;24.23;47.76
73886;BME280;62217;44.504;11.312;2024-03-02T11:23:34;100496.78;;;24.23;47.96
73886;BME280;62217;44.504;11.312;2024-03-02T11:28:44;100495.94;;;24.22;47.63
73886;BME280;62217;44.504;11.312;2024-03-02T11:31:10;100499.72;;;24.21;47.28
73886;BME280;62217;44.504;11.312;2024-03-02T11:33:35;100499.94;;;24.20;47.51
73886;BME280;62217;44.504;11.312;2024-03-02T11:36:01;100497.47;;;24.18;47.50
73886;BME280;62217;44.504;11.312;2024-03-02T11:38:33;100495.78;;;24.17;47.39
73886;BME280;62217;44.504;11.312;2024-03-02T11:41:01;100490.59;;;24.16;47.46
73886;BME280;62217;44.504;11.312;2024-03-02T11:43:27;100493.06;;;24.17;47.62
73886;BME280;62217;44.504;11.312;2024-03-02T11:46:00;100495.69;;;24.12;47.28
73886;BME280;62217;44.504;11.312;2024-03-02T11:48:29;100499.44;;;24.11;47.19
73886;BME280;62217;44.504;11.312;2024-03-02T11:50:58;100503.22;;;24.10;47.43
73886;BME280;62217;44.504;11.312;2024-03-02T11:53:26;100493.63;;;24.08;47.34
73886;BME280;62217;44.504;11.312;2024-03-02T11:55:55;100496.13;;;24.09;47.29
73886;BME280;62217;44.504;11.312;2024-03-02T11:58:20;100485.84;;;24.11;47.70
73886;BME280;62217;44.504;11.312;2024-03-02T12:00:55;100479.16;;;24.14;47.63
73886;BME280;62217;44.504;11.312;2024-03-02T12:03:25;100480.81;;;24.15;47.67
73886;BME280;62217;44.504;11.312;2024-03-02T12:05:52;100470.56;;;24.17;47.37
73886;BME280;62217;44.504;11.312;2024-03-02T12:08:18;100474.06;;;24.17;47.42
73886;BME280;62217;44.504;11.312;2024-03-02T12:10:56;100475.16;;;24.16;47.54
73886;BME280;62217;44.504;11.312;2024-03-02T12:13:21;100478.91;;;24.15;47.21
73886;BME280;62217;44.504;11.312;2024-03-02T12:15:47;100466.66;;;24.13;47.39
73886;BME280;62217;44.504;11.312;2024-03-02T12:18:13;100472.28;;;24.11;47.59
73886;BME280;62217;44.504;11.312;2024-03-02T12:20:38;100468.97;;;24.09;47.33
73886;BME280;62217;44.504;11.312;2024-03-02T12:23:04;100461.22;;;24.13;47.39
73886;BME280;62217;44.504;11.312;2024-03-02T12:25:31;100456.16;;;24.16;47.58
73886;BME280;62217;44.504;11.312;2024-03-02T12:28:00;100459.22;;;24.20;47.44
73886;BME280;62217;44.504;11.312;2024-03-02T12:30:29;100459.81;;;24.22;47.32
73886;BME280;62217;44.504;11.312;2024-03-02T12:32:55;100463.38;;;24.22;47.46
73886;BME280;62217;44.504;11.312;2024-03-02T12:35:21;100451.47;;;24.23;47.43
73886;BME280;62217;44.504;11.312;2024-03-02T12:37:51;100454.19;;;24.23;47.43
73886;BME280;62217;44.504;11.312;2024-03-02T12:40:18;100452.06;;;24.25;47.42
73886;BME280;62217;44.504;11.312;2024-03-02T12:42:47;100455.81;;;24.24;47.55
73886;BME280;62217;44.504;11.312;2024-03-02T12:45:13;100456.66;;;24.25;47.48
73886;BME280;62217;44.504;11.312;2024-03-02T12:47:40;100454.78;;;24.25;47.19
73886;BME280;62217;44.504;11.312;2024-03-02T12:50:07;100450.38;;;24.24;47.53
73886;BME280;62217;44.504;11.312;2024-03-02T12:52:34;100454.97;;;24.24;47.52
73886;BME280;62217;44.504;11.312;2024-03-02T12:55:04;100452.06;;;24.25;47.79
73886;BME280;62217;44.504;11.312;2024-03-02T12:57:31;100446.38;;;24.27;47.45
73886;BME280;62217;44.504;11.312;2024-03-02T13:02:29;100440.72;;;24.28;47.77
73886;BME280;62217;44.504;11.312;2024-03-02T13:04:56;100430.69;;;24.29;47.51
73886;BME280;62217;44.504;11.312;2024-03-02T13:07:25;100438.59;;;24.30;47.81
73886;BME280;62217;44.504;11.312;2024-03-02T13:09:52;100432.97;;;24.32;47.75
73886;BME280;62217;44.504;11.312;2024-03-02T13:12:18;100428.31;;;24.32;47.38
73886;BME280;62217;44.504;11.312;2024-03-02T13:14:44;100432.97;;;24.32;47.45
73886;BME280;62217;44.504;11.312;2024-03-02T13:17:09;100431.53;;;24.29;47.72
73886;BME280;62217;44.504;11.312;2024-03-02T13:19:35;100431.53;;;24.29;47.25
73886;BME280;62217;44.504;11.312;2024-03-02T13:22:00;100429.84;;;24.28;47.50
73886;BME280;62217;44.504;11.312;2024-03-02T13:24:30;100444.50;;;24.27;47.47
73886;BME280;62217;44.504;11.312;2024-03-02T13:26:55;100433.66;;;24.27;47.40
73886;BME280;62217;44.504;11.312;2024-03-02T13:29:23;100430.94;;;24.27;47.51
73886;BME280;62217;44.504;11.312;2024-03-02T13:31:49;100449.94;;;24.27;47.47
73886;BME280;62217;44.504;11.312;2024-03-02T13:34:15;100444.50;;;24.27;47.42
73886;BME280;62217;44.504;11.312;2024-03-02T13:36:40;100445.31;;;24.28;47.33
73886;BME280;62217;44.504;11.312;2024-03-02T13:39:06;100441.78;;;24.27;47.54
73886;BME280;62217;44.504;11.312;2024-03-02T13:41:34;100443.44;;;24.28;47.77
73886;BME280;62217;44.504;11.312;2024-03-02T17:21:04;100520.88;;;22.97;47.99
73886;BME280;62217;44.504;11.312;2024-03-02T17:23:29;100522.03;;;23.08;48.45
73886;BME280;62217;44.504;11.312;2024-03-02T17:25:57;100526.25;;;23.22;48.07
73886;BME280;62217;44.504;11.312;2024-03-02T17:28:23;100523.22;;;23.37;47.88
73886;BME280;62217;44.504;11.312;2024-03-02T17:30:50;100533.09;;;23.49;48.03
73886;BME280;62217;44.504;11.312;2024-03-02T17:33:16;100523.88;;;23.57;47.92
73886;BME280;62217;44.504;11.312;2024-03-02T17:35:41;100530.66;;;23.66;47.83
73886;BME280;62217;44.504;11.312;2024-03-02T17:38:10;100527.03;;;23.72;47.66
73886;BME280;62217;44.504;11.312;2024-03-02T17:40:35;100538.63;;;23.79;48.31
73886;BME280;62217;44.504;11.312;2024-03-02T17:43:00;100533.81;;;23.81;47.64
73886;BME280;62217;44.504;11.312;2024-03-02T17:45:26;100531.91;;;23.81;47.44
73886;BME280;62217;44.504;11.312;2024-03-02T17:47:51;100535.47;;;23.82;47.38
73886;BME280;62217;44.504;11.312;2024-03-02T17:50:16;100538.19;;;23.82;47.47
73886;BME280;62217;44.504;11.312;2024-03-02T17:52:42;100530.88;;;23.82;47.40
73886;BME280;62217;44.504;11.312;2024-03-02T17:55:07;100539.81;;;23.83;47.69
73886;BME280;62217;44.504;11.312;2024-03-02T17:57:33;100547.16;;;23.82;47.32
73886;BME280;62217;44.504;11.312;2024-03-02T17:59:58;100554.22;;;23.83;47.46
73886;BME280;62217;44.504;11.312;2024-03-02T18:02:23;100551.50;;;23.83;47.14
73886;BME280;62217;44.504;11.312;2024-03-02T18:04:49;100546.09;;;23.83;47.30
73886;BME280;62217;44.504;11.312;2024-03-02T18:07:15;100547.97;;;23.83;47.38
73886;BME280;62217;44.504;11.312;2024-03-02T18:09:40;100550.69;;;23.83;47.33
73886;BME280;62217;44.504;11.312;2024-03-02T18:12:06;100563.22;;;23.84;47.37
73886;BME280;62217;44.504;11.312;2024-03-02T18:14:31;100552.59;;;23.82;47.55
73886;BME280;62217;44.504;11.312;2024-03-02T18:16:57;100561.53;;;23.83;47.36
73886;BME280;62217;44.504;11.312;2024-03-02T18:19:22;100558.81;;;23.83;47.05
73886;BME280;62217;44.504;11.312;2024-03-02T18:21:49;100555.31;;;23.82;47.37
73886;BME280;62217;44.504;11.312;2024-03-02T18:24:14;100554.47;;;23.82;47.28
73886;BME280;62217;44.504;11.312;2024-03-02T18:26:39;100554.47;;;23.82;47.13
73886;BME280;62217;44.504;11.312;2024-03-02T18:29:06;100547.38;;;23.81;47.30
73886;BME280;62217;44.504;11.312;2024-03-02T18:31:34;100556.34;;;23.81;47.09
73886;BME280;62217;44.504;11.312;2024-03-02T18:33:59;100560.13;;;23.80;47.10
73886;BME280;62217;44.504;11.312;2024-03-02T18:36:24;100562.00;;;23.80;47.18
73886;BME280;62217;44.504;11.312;2024-03-02T18:38:50;100559.28;;;23.80;47.18
73886;BME280;62217;44.504;11.312;2024-03-02T18:41:16;100564.72;;;23.80;47.09
73886;BME280;62217;44.504;11.312;2024-03-02T18:43:41;100571.19;;;23.79;47.15
73886;BME280;62217;44.504;11.312;2024-03-02T18:46:07;100563.03;;;23.79;47.09
73886;BME280;62217;44.504;11.312;2024-03-02T18:48:35;100555.13;;;23.77;47.27
73886;BME280;62217;44.504;11.312;2024-03-02T18:51:06;100547.00;;;23.77;47.18
73886;BME280;62217;44.504;11.312;2024-03-02T18:53:31;100557.00;;;23.77;47.22
73886;BME280;62217;44.504;11.312;2024-03-02T18:55:56;100538.03;;;23.77;47.24
73886;BME280;62217;44.504;11.312;2024-03-02T18:58:22;100547.00;;;23.77;46.87
73886;BME280;62217;44.504;11.312;2024-03-02T19:00:48;100547.22;;;23.76;46.89
73886;BME280;62217;44.504;11.312;2024-03-02T19:03:14;100548.28;;;23.75;47.07
73886;BME280;62217;44.504;11.312;2024-03-02T19:05:39;100560.81;;;23.76;46.98
73886;BME280;62217;44.504;11.312;2024-03-02T19:08:05;100557.25;;;23.75;47.12
73886;BME280;62217;44.504;11.312;2024-03-02T19:10:30;100562.91;;;23.74;47.22
73886;BME280;62217;44.504;11.312;2024-03-02T19:12:56;100561.22;;;23.73;47.15
73886;BME280;62217;44.504;11.312;2024-03-02T19:15:21;100565.63;;;23.74;47.12
73886;BME280;62217;44.504;11.312;2024-03-02T19:17:46;100566.66;;;23.73;47.21
73886;BME280;62217;44.504;11.312;2024-03-02T19:20:12;100574.81;;;23.73;46.94
73886;BME280;62217;44.504;11.312;2024-03-02T19:22:38;100562.31;;;23.72;46.79
73886;BME280;62217;44.504;11.312;2024-03-02T19:25:03;100563.34;;;23.71;47.07
73886;BME280;62217;44.504;11.312;2024-03-02T19:27:29;100560.63;;;23.71;47.08
73886;BME280;62217;44.504;11.312;2024-03-02T19:29:55;100557.91;;;23.71;47.15
73886;BME280;62217;44.504;11.312;2024-03-02T19:32:20;100556.28;;;23.70;47.02
73886;BME280;62217;44.504;11.312;2024-03-02T19:34:48;100556.28;;;23.70;47.02
73886;BME280;62217;44.504;11.312;2024-03-02T19:37:13;100546.22;;;23.70;47.07
73886;BME280;62217;44.504;11.312;2024-03-02T19:39:39;100545.44;;;23.70;47.02
73886;BME280;62217;44.504;11.312;2024-03-02T19:42:07;100548.34;;;23.68;47.01
73886;BME280;62217;44.504;11.312;2024-03-02T19:44:32;100552.97;;;23.68;46.86
73886;BME280;62217;44.504;11.312;2024-03-02T19:46:59;100560.25;;;23.67;46.96
73886;BME280;62217;44.504;11.312;2024-03-02T19:49:24;100552.38;;;23.66;46.93
73886;BME280;62217;44.504;11.312;2024-03-02T19:51:50;100547.75;;;23.66;46.92
73886;BME280;62217;44.504;11.312;2024-03-02T19:54:15;100545.88;;;23.67;46.73
73886;BME280;62217;44.504;11.312;2024-03-02T19:56:41;100548.81;;;23.65;47.00
73886;BME280;62217;44.504;11.312;2024-03-02T19:59:06;100550.69;;;23.65;46.75
73886;BME280;62217;44.504;11.312;2024-03-02T20:01:35;100557.78;;;23.66;47.21
73886;BME280;62217;44.504;11.312;2024-03-02T20:04:01;100557.16;;;23.64;46.74
73886;BME280;62217;44.504;11.312;2024-03-02T20:06:26;100554.44;;;23.64;46.82
73886;BME280;62217;44.504;11.312;2024-03-02T20:08:51;100557.16;;;23.64;46.98
73886;BME280;62217;44.504;11.312;2024-03-02T20:11:17;100561.78;;;23.63;46.69
73886;BME280;62217;44.504;11.312;2024-03-02T20:13:42;100554.66;;;23.62;46.91
73886;BME280;62217;44.504;11.312;2024-03-02T20:16:08;100559.25;;;23.62;46.71
73886;BME280;62217;44.504;11.312;2024-03-02T20:18:33;100553.84;;;23.62;46.81
73886;BME280;62217;44.504;11.312;2024-03-02T20:20:59;100555.75;;;23.61;46.74
73886;BME280;62217;44.504;11.312;2024-03-02T20:23:25;100566.59;;;23.61;46.70
73886;BME280;62217;44.504;11.312;2024-03-02T20:25:50;100574.72;;;23.61;46.86
73886;BME280;62217;44.504;11.312;2024-03-02T20:28:16;100573.91;;;23.61;46.74
73886;BME280;62217;44.504;11.312;2024-03-02T20:30:42;100574.94;;;23.60;46.60
73886;BME280;62217;44.504;11.312;2024-03-02T20:33:08;100571.41;;;23.59;46.75
73886;BME280;62217;44.504;11.312;2024-03-02T20:35:33;100571.63;;;23.58;46.76
73886;BME280;62217;44.504;11.312;2024-03-02T20:37:59;100563.47;;;23.58;46.61
73886;BME280;62217;44.504;11.312;2024-03-02T20:40:24;100561.59;;;23.58;46.80
73886;BME280;62217;44.504;11.312;2024-03-02T20:42:50;100559.97;;;23.57;46.93
73886;BME280;62217;44.504;11.312;2024-03-02T20:45:15;100561.84;;;23.57;46.51
73886;BME280;62217;44.504;11.312;2024-03-02T20:47:43;100556.41;;;23.57;46.30
73886;BME280;62217;44.504;11.312;2024-03-02T20:50:10;100547.44;;;23.56;46.59
73886;BME280;62217;44.504;11.312;2024-03-02T20:52:36;100543.88;;;23.56;46.59
73886;BME280;62217;44.504;11.312;2024-03-02T20:55:01;100548.47;;;23.55;46.68
73886;BME280;62217;44.504;11.312;2024-03-02T20:57:26;100553.09;;;23.55;46.86
73886;BME280;62217;44.504;11.312;2024-03-02T20:59:52;100554.13;;;23.54;46.49
73886;BME280;62217;44.504;11.312;2024-03-02T21:02:17;100554.13;;;23.54;46.67
73886;BME280;62217;44.504;11.312;2024-03-02T21:04:43;100556.00;;;23.53;46.58
73886;BME280;62217;44.504;11.312;2024-03-02T21:07:10;100554.13;;;23.54;46.45
73886;BME280;62217;44.504;11.312;2024-03-02T21:09:35;100546.22;;;23.52;46.45
73886;BME280;62217;44.504;11.312;2024-03-02T21:12:01;100531.84;;;23.52;46.52
73886;BME280;62217;44.504;11.312;2024-03-02T21:14:30;100539.97;;;23.52;46.33
73886;BME280;62217;44.504;11.312;2024-03-02T21:16:55;100543.75;;;23.51;46.44
73886;BME280;62217;44.504;11.312;2024-03-02T21:19:21;100546.47;;;23.51;46.35
73886;BME280;62217;44.504;11.312;2024-03-02T21:21:46;100547.50;;;23.50;46.45
73886;BME280;62217;44.504;11.312;2024-03-02T21:24:12;100551.06;;;23.50;46.45
73886;BME280;62217;44.504;11.312;2024-03-02T21:26:38;100552.94;;;23.50;46.47
73886;BME280;62217;44.504;11.312;2024-03-02T21:29:04;100545.88;;;23.49;46.43
73886;BME280;62217;44.504;11.312;2024-03-02T21:31:29;100552.09;;;23.49;46.53
73886;BME280;62217;44.504;11.312;2024-03-02T21:33:55;100547.75;;;23.48;46.68
73886;BME280;62217;44.504;11.312;2024-03-02T21:36:20;100540.63;;;23.47;46.37
73886;BME280;62217;44.504;11.312;2024-03-02T21:38:45;100533.34;;;23.48;46.19
73886;BME280;62217;44.504;11.312;2024-03-02T21:41:11;100539.84;;;23.47;46.24
73886;BME280;62217;44.504;11.312;2024-03-02T21:43:36;100531.06;;;23.45;46.37
73886;BME280;62217;44.504;11.312;2024-03-02T21:46:02;100541.72;;;23.46;46.24
73886;BME280;62217;44.504;11.312;2024-03-02T21:48:28;100540.03;;;23.45;46.30
73886;BME280;62217;44.504;11.312;2024-03-02T21:50:53;100540.03;;;23.45;46.39
73886;BME280;62217;44.504;11.312;2024-03-02T21:53:18;100540.88;;;23.46;46.19
73886;BME280;62217;44.504;11.312;2024-03-02T21:55:44;100544.63;;;23.45;46.26
73886;BME280;62217;44.504;11.312;2024-03-02T21:58:09;100551.94;;;23.44;46.17
73886;BME280;62217;44.504;11.312;2024-03-02T22:00:35;100544.84;;;23.43;46.22
73886;BME280;62217;44.504;11.312;2024-03-02T22:03:01;100552.16;;;23.43;46.50
73886;BME280;62217;44.504;11.312;2024-03-02T22:05:28;100554.06;;;23.42;46.27
73886;BME280;62217;44.504;11.312;2024-03-02T22:07:54;100553.22;;;23.42;46.18
73886;BME280;62217;44.504;11.312;2024-03-02T22:10:20;100556.97;;;23.41;46.21
73886;BME280;62217;44.504;11.312;2024-03-02T22:12:45;100556.16;;;23.40;46.28
73886;BME280;62217;44.504;11.312;2024-03-02T22:15:10;100566.19;;;23.40;46.26
73886;BME280;62217;44.504;11.312;2024-03-02T22:17:36;100565.56;;;23.38;46.12
73886;BME280;62217;44.504;11.312;2024-03-02T22:20:01;100572.88;;;23.37;46.24
73886;BME280;62217;44.504;11.312;2024-03-02T22:22:27;100569.56;;;23.35;46.09
73886;BME280;62217;44.504;11.312;2024-03-02T22:24:53;100574.97;;;23.35;46.13
73886;BME280;62217;44.504;11.312;2024-03-02T22:27:18;100572.50;;;23.34;46.00
73886;BME280;62217;44.504;11.312;2024-03-02T22:29:43;100572.50;;;23.34;46.02
73886;BME280;62217;44.504;11.312;2024-03-02T22:32:09;100563.53;;;23.33;46.18
73886;BME280;62217;44.504;11.312;2024-03-02T22:34:34;100571.66;;;23.33;46.18
73886;BME280;62217;44.504;11.312;2024-03-02T22:37:00;100559.97;;;23.33;45.98
73886;BME280;62217;44.504;11.312;2024-03-02T22:39:25;100560.81;;;23.33;46.16
73886;BME280;62217;44.504;11.312;2024-03-02T22:41:51;100559.97;;;23.33;45.97
73886;BME280;62217;44.504;11.312;2024-03-02T22:44:17;100555.38;;;23.33;46.15
73886;BME280;62217;44.504;11.312;2024-03-02T22:46:44;100540.38;;;23.31;46.08
73886;BME280;62217;44.504;11.312;2024-03-02T22:49:09;100542.22;;;23.30;45.90
73886;BME280;62217;44.504;11.312;2024-03-02T22:51:35;100542.03;;;23.32;46.00
73886;BME280;62217;44.504;11.312;2024-03-02T22:54:00;100547.47;;;23.32;45.95
73886;BME280;62217;44.504;11.312;2024-03-02T22:56:25;100543.72;;;23.33;45.89
73886;BME280;62217;44.504;11.312;2024-03-02T22:58:51;100538.28;;;23.33;45.95
73886;BME280;62217;44.504;11.312;2024-03-02T23:01:16;100539.97;;;23.34;45.83
73886;BME280;62217;44.504;11.312;2024-03-02T23:03:46;100544.53;;;23.33;45.97
73886;BME280;62217;44.504;11.312;2024-03-02T23:06:12;100546.19;;;23.34;45.75
73886;BME280;62217;44.504;11.312;2024-03-02T23:08:37;100544.53;;;23.33;45.95
73886;BME280;62217;44.504;11.312;2024-03-02T23:11:03;100548.91;;;23.34;45.93
73886;BME280;62217;44.504;11.312;2024-03-02T23:13:29;100557.88;;;23.35;45.89
73886;BME280;62217;44.504;11.312;2024-03-02T23:15:55;100545.38;;;23.34;46.00
73886;BME280;62217;44.504;11.312;2024-03-02T23:18:22;100549.75;;;23.35;46.06
73886;BME280;62217;44.504;11.312;2024-03-02T23:20:47;100549.75;;;23.35;46.09
73886;BME280;62217;44.504;11.312;2024-03-02T23:23:13;100547.50;;;23.50;45.86
73886;BME280;62217;44.504;11.312;2024-03-02T23:25:38;100552.63;;;23.58;45.69
73886;BME280;62217;44.504;11.312;2024-03-02T23:28:04;100550.31;;;23.61;45.71
73886;BME280;62217;44.504;11.312;2024-03-02T23:30:30;100554.44;;;23.64;45.66
73886;BME280;62217;44.504;11.312;2024-03-02T23:32:55;100554.84;;;23.67;45.85
73886;BME280;62217;44.504;11.312;2024-03-02T23:35:21;100551.66;;;23.70;45.77
73886;BME280;62217;44.504;11.312;2024-03-02T23:37:47;100553.69;;;23.75;45.75
73886;BME280;62217;44.504;11.312;2024-03-02T23:40:13;100554.31;;;23.77;45.59
73886;BME280;62217;44.504;11.312;2024-03-02T23:42:41;100552.19;;;23.79;45.60
73886;BME280;62217;44.504;11.312;2024-03-02T23:45:07;100559.06;;;23.81;45.50
73886;BME280;62217;44.504;11.312;2024-03-02T23:47:33;100549.88;;;23.82;45.82
73886;BME280;62217;44.504;11.312;2024-03-02T23:49:59;100553.19;;;23.84;45.59
73886;BME280;62217;44.504;11.312;2024-03-02T23:52:24;100550.25;;;23.86;45.63
73886;BME280;62217;44.504;11.312;2024-03-02T23:54:50;100539.38;;;23.86;45.48
73886;BME280;62217;44.504;11.312;2024-03-02T23:57:15;100543.53;;;23.88;45.77
73886;BME280;62217;44.504;11.312;2024-03-02T23:59:41;100537.28;;;23.88;45.45
